Time;durP1;ratioP1;P1;durP2;ratioP2;P2;SDS_P1;SDS_P2;PMS_P1;PMS_P2;Temp;Humidity;BMP_temperature;BMP_pressure;BME280_temperature;BME280_humidity;BME280_pressure;Samples;Min_cycle;Max_cycle;Signal;HPM_P1;HPM_P2
2024/01/24 00:00:07;;;;;;;4.93;1.80;;;;;;;10.08;83.80;98970.56;4233743;27;20648;-84
2024/01/24 00:02:33;;;;;;;5.87;1.13;;;;;;;10.11;83.09;98967.81;4253289;27;20618;-83
2024/01/24 00:04:56;;;;;;;4.50;1.23;;;;;;;10.11;83.14;98975.63;4255521;27;20637;-83
2024/01/24 00:07:19;;;;;;;3.23;1.33;;;;;;;10.12;83.85;98988.56;4260085;27;21002;-83
2024/01/24 00:09:42;;;;;;;2.10;1.10;;;;;;;10.12;83.57;98988.56;4237867;27;20617;-83
2024/01/24 00:12:06;;;;;;;2.57;1.17;;;;;;;10.09;82.94;98965.28;4240786;27;20618;-83
2024/01/24 00:14:30;;;;;;;3.30;1.07;;;;;;;10.08;84.92;98958.38;4240203;27;20716;-83
2024/01/24 00:16:54;;;;;;;3.20;1.20;;;;;;;10.09;84.52;98961.84;4234446;27;20660;-83
2024/01/24 00:19:17;;;;;;;3.60;1.40;;;;;;;10.14;83.63;98955.44;4229801;27;21071;-83
2024/01/24 00:21:40;;;;;;;4.83;1.13;;;;;;;10.18;83.08;98941.34;4226619;27;20701;-83
2024/01/24 00:24:04;;;;;;;6.13;1.43;;;;;;;10.25;83.23;98941.84;4227860;27;20676;-83
2024/01/24 00:26:27;;;;;;;3.63;1.30;;;;;;;10.28;84.11;98928.66;4234703;27;20610;-83
2024/01/24 00:28:50;;;;;;;4.17;1.10;;;;;;;10.32;83.36;98917.16;4236695;27;21058;-83
2024/01/24 00:31:13;;;;;;;5.90;1.40;;;;;;;10.35;82.80;98908.22;4237356;27;20648;-83
2024/01/24 00:33:38;;;;;;;5.37;1.17;;;;;;;10.40;82.68;98910.56;4239285;27;21295;-83
2024/01/24 00:36:01;;;;;;;3.03;1.10;;;;;;;10.40;82.58;98908.81;4225991;27;20617;-83
2024/01/24 00:38:17;;;;;;;2.33;1.00;;;;;;;10.41;83.42;98883.56;4220768;27;20654;-83
2024/01/24 00:40:40;;;;;;;3.10;0.93;;;;;;;10.45;82.84;98882.50;4236844;27;20604;-83
2024/01/24 00:43:03;;;;;;;5.97;1.23;;;;;;;10.46;83.48;98878.94;4223067;27;21216;-83
2024/01/24 00:45:26;;;;;;;3.87;1.03;;;;;;;10.49;83.43;98873.56;4237621;27;20609;-83
2024/01/24 00:47:49;;;;;;;6.30;1.30;;;;;;;10.52;83.67;98870.78;4225366;27;20617;-83
2024/01/24 00:50:14;;;;;;;3.47;1.20;;;;;;;10.52;82.73;98879.44;4253827;27;20635;-83
2024/01/24 00:52:37;;;;;;;3.20;1.20;;;;;;;10.51;84.49;98892.59;4237618;27;20629;-83
2024/01/24 00:55:00;;;;;;;5.07;1.20;;;;;;;10.53;84.08;98899.38;4234018;27;20602;-83
2024/01/24 00:57:23;;;;;;;7.80;1.70;;;;;;;10.54;85.27;98898.47;4235752;27;20649;-83
2024/01/24 00:59:46;;;;;;;2.93;1.10;;;;;;;10.52;85.02;98895.09;4235548;27;21490;-83
2024/01/24 01:02:09;;;;;;;7.00;1.30;;;;;;;10.45;85.55;98890.31;4241515;27;20612;-83
2024/01/24 01:04:17;;;;;;;4.63;1.27;;;;;;;10.42;85.59;98887.88;4233189;27;20684;-83
2024/01/24 01:06:41;;;;;;;3.50;0.90;;;;;;;10.37;85.61;98882.91;4255327;27;20624;-83
2024/01/24 01:09:04;;;;;;;4.67;1.10;;;;;;;10.35;86.35;98876.09;4242035;27;20678;-83
2024/01/24 01:11:27;;;;;;;6.13;1.63;;;;;;;10.34;87.33;98874.41;4239159;27;20993;-83
2024/01/24 01:13:50;;;;;;;8.13;1.40;;;;;;;10.34;87.20;98882.22;4261097;27;21720;-83
2024/01/24 01:16:14;;;;;;;3.27;1.43;;;;;;;10.36;88.14;98883.00;4241861;27;20605;-83
2024/01/24 01:18:37;;;;;;;3.97;1.23;;;;;;;10.35;88.18;98876.09;4260699;27;20659;-83
2024/01/24 01:21:00;;;;;;;4.40;1.10;;;;;;;10.36;88.64;98876.00;4231039;27;20632;-83
2024/01/24 01:23:25;;;;;;;6.00;1.37;;;;;;;10.42;87.80;98886.09;4235102;27;20985;-83
2024/01/24 01:25:48;;;;;;;4.00;1.30;;;;;;;10.43;88.71;98873.91;4245702;27;21154;-83
2024/01/24 01:28:05;;;;;;;7.73;1.40;;;;;;;10.44;88.77;98875.59;4251002;27;21510;-83
2024/01/24 01:30:28;;;;;;;4.60;1.20;;;;;;;10.50;88.07;98867.44;4236332;27;25623;-83
2024/01/24 01:32:51;;;;;;;6.20;1.10;;;;;;;10.52;87.17;98869.00;4244390;27;20612;-83
2024/01/24 01:35:15;;;;;;;4.73;1.27;;;;;;;10.59;87.47;98874.75;4229359;27;20690;-83
2024/01/24 01:37:39;;;;;;;7.00;1.40;;;;;;;10.57;87.64;98871.34;4239499;27;20649;-83
2024/01/24 01:40:04;;;;;;;5.50;1.50;;;;;;;10.56;87.58;98875.75;4242179;27;20677;-83
2024/01/24 01:42:27;;;;;;;4.10;1.53;;;;;;;10.60;88.24;98879.00;4227186;27;20661;-83
2024/01/24 01:44:51;;;;;;;3.45;1.30;;;;;;;10.60;88.90;98879.00;4260679;27;21151;-83
2024/01/24 01:47:15;;;;;;;6.47;1.20;;;;;;;10.61;88.17;98875.47;4227115;27;20204;-83
2024/01/24 01:49:38;;;;;;;5.33;1.07;;;;;;;10.63;88.90;98866.66;4244123;27;20613;-83
2024/01/24 01:52:01;;;;;;;4.90;1.17;;;;;;;10.65;88.07;98866.56;4241813;27;20614;-83
2024/01/24 01:54:25;;;;;;;4.23;1.37;;;;;;;10.65;88.47;98877.00;4244680;27;21079;-83
2024/01/24 01:56:49;;;;;;;4.90;1.10;;;;;;;10.65;87.70;98863.97;4223802;27;20638;-83
2024/01/24 01:59:12;;;;;;;2.03;1.00;;;;;;;10.63;88.12;98866.66;4223890;27;20652;-83
2024/01/24 02:01:36;;;;;;;4.70;1.03;;;;;;;10.65;87.43;98863.97;4249193;27;20612;-83
2024/01/24 02:03:45;;;;;;;7.77;0.97;;;;;;;10.68;87.27;98862.00;4239084;27;20731;-83
2024/01/24 02:06:09;;;;;;;1.70;1.00;;;;;;;10.68;87.89;98856.78;4222758;27;20622;-83
2024/01/24 02:08:34;;;;;;;2.53;0.80;;;;;;;10.68;87.07;98848.13;4239851;27;20613;-83
2024/01/24 02:10:57;;;;;;;5.30;1.17;;;;;;;10.72;87.74;98854.84;4242480;27;20696;-83
2024/01/24 02:13:21;;;;;;;3.40;1.33;;;;;;;10.72;87.19;98863.53;4238739;27;21285;-83
2024/01/24 02:15:26;;;;;;;3.90;1.10;;;;;;;10.73;87.84;98862.59;4221653;27;20760;-83
2024/01/24 02:17:49;;;;;;;4.33;1.17;;;;;;;10.76;88.19;98841.53;4250589;27;20679;-83
2024/01/24 02:20:13;;;;;;;2.40;0.80;;;;;;;10.80;86.54;98843.06;4222704;27;20655;-83
2024/01/24 02:22:36;;;;;;;3.50;1.00;;;;;;;10.86;86.55;98846.16;4253590;27;20629;-83
2024/01/24 02:25:02;;;;;;;4.80;1.33;;;;;;;10.87;87.68;98837.41;4243779;27;21091;-83
2024/01/24 02:27:25;;;;;;;5.33;1.13;;;;;;;10.90;85.73;98858.09;4247036;27;20597;-83
2024/01/24 02:29:48;;;;;;;2.63;1.00;;;;;;;10.89;86.61;98858.19;4228442;27;21260;-83
2024/01/24 02:32:12;;;;;;;2.90;1.10;;;;;;;10.90;85.67;98860.72;4246228;27;20605;-84
2024/01/24 02:34:35;;;;;;;4.70;1.20;;;;;;;10.93;85.32;98855.31;4236638;27;21230;-83
2024/01/24 02:36:58;;;;;;;6.70;1.30;;;;;;;10.94;85.36;98841.31;4255382;27;20609;-83
2024/01/24 02:39:21;;;;;;;4.00;0.90;;;;;;;10.95;86.43;98837.78;4248947;27;21226;-83
2024/01/24 02:41:46;;;;;;;3.90;0.90;;;;;;;10.98;85.64;98829.78;4251614;27;20620;-83
2024/01/24 02:44:02;;;;;;;4.30;1.40;;;;;;;10.97;85.32;98835.91;4230802;27;20653;-81
2024/01/24 02:46:25;;;;;;;2.77;1.00;;;;;;;11.00;86.45;98822.69;4243225;27;20617;-81
2024/01/24 02:48:48;;;;;;;2.77;0.90;;;;;;;11.01;86.20;98813.94;4241433;27;20609;-81
2024/01/24 02:51:11;;;;;;;2.57;0.97;;;;;;;11.01;85.07;98813.94;4240883;27;20606;-80
2024/01/24 02:53:34;;;;;;;3.30;1.00;;;;;;;11.04;85.47;98815.53;4255484;27;21161;-81
2024/01/24 02:55:57;;;;;;;3.20;1.20;;;;;;;11.05;86.22;98802.41;4254581;27;20613;-81
2024/01/24 02:58:22;;;;;;;4.80;1.10;;;;;;;11.02;85.60;98799.97;4243347;27;21466;-80
2024/01/24 03:00:45;;;;;;;3.27;1.03;;;;;;;11.05;85.53;98789.34;4242780;27;20606;-80
2024/01/24 03:03:08;;;;;;;3.27;0.80;;;;;;;11.01;85.15;98795.69;4238934;27;21829;-80
2024/01/24 03:05:31;;;;;;;7.37;1.30;;;;;;;11.04;86.00;98812.94;4240456;27;21210;-80
2024/01/24 03:07:54;;;;;;;3.00;1.07;;;;;;;11.03;86.12;98812.06;4223793;27;20676;-80
2024/01/24 03:10:17;;;;;;;3.47;1.20;;;;;;;11.04;85.44;98807.72;4242660;27;21031;-80
2024/01/24 03:12:40;;;;;;;4.43;1.10;;;;;;;11.08;85.86;98817.03;4250831;27;20640;-80
2024/01/24 03:15:06;;;;;;;3.37;0.93;;;;;;;11.09;86.86;98834.38;4243620;27;20638;-81
2024/01/24 03:17:30;;;;;;;5.67;1.40;;;;;;;11.11;85.59;98833.38;4228943;27;21024;-81
2024/01/24 03:19:53;;;;;;;3.80;1.33;;;;;;;11.14;86.84;98821.88;4236830;27;20628;-81
2024/01/24 03:22:16;;;;;;;5.10;1.63;;;;;;;11.12;86.70;98815.94;4258659;27;21236;-80
2024/01/24 03:24:40;;;;;;;2.93;1.23;;;;;;;11.12;86.81;98814.16;4245349;27;20638;-81
2024/01/24 03:27:03;;;;;;;3.17;1.23;;;;;;;11.13;84.85;98813.22;4254560;27;21183;-81
2024/01/24 03:29:26;;;;;;;5.63;1.43;;;;;;;11.12;84.71;98819.38;4255697;27;20613;-81
2024/01/24 03:31:50;;;;;;;5.40;1.00;;;;;;;11.14;84.73;98811.44;4255767;27;20656;-82
2024/01/24 03:34:14;;;;;;;4.33;1.00;;;;;;;11.15;85.67;98816.56;4224346;27;20603;-81
2024/01/24 03:36:37;;;;;;;2.10;0.80;;;;;;;11.15;86.02;98827.03;4242984;27;20641;-80
2024/01/24 03:39:01;;;;;;;3.47;1.07;;;;;;;11.12;87.01;98832.44;4251921;27;20651;-81
2024/01/24 03:41:24;;;;;;;3.10;1.20;;;;;;;11.12;85.65;98823.75;4222940;27;20666;-81
2024/01/24 03:43:48;;;;;;;3.70;1.10;;;;;;;11.13;87.01;98820.22;4255559;27;21021;-80
2024/01/24 03:46:11;;;;;;;3.53;1.03;;;;;;;11.13;86.56;98822.84;4241898;27;20624;-81
2024/01/24 03:48:35;;;;;;;5.90;1.87;;;;;;;11.13;85.76;98809.78;4238611;27;20612;-81
2024/01/24 03:50:59;;;;;;;2.87;1.10;;;;;;;11.13;86.84;98810.63;4239271;27;20647;-80
2024/01/24 03:53:22;;;;;;;4.60;1.23;;;;;;;11.13;86.90;98810.63;4227103;27;20622;-83
2024/01/24 03:55:45;;;;;;;4.80;1.10;;;;;;;11.15;86.59;98802.69;4231092;27;21261;-83
2024/01/24 03:58:08;;;;;;;2.83;1.10;;;;;;;11.16;87.39;98800.00;4232260;27;21180;-83
2024/01/24 04:00:32;;;;;;;3.73;1.00;;;;;;;11.16;86.94;98797.38;4227074;27;20729;-84
2024/01/24 04:02:55;;;;;;;3.10;0.87;;;;;;;11.17;88.20;98793.00;4260151;27;20652;-83
2024/01/24 04:05:20;;;;;;;3.53;1.00;;;;;;;11.19;87.72;98798.97;4225818;27;21319;-83
2024/01/24 04:07:43;;;;;;;2.90;1.00;;;;;;;11.14;88.05;98803.63;4243615;27;20605;-83
2024/01/24 04:10:07;;;;;;;3.43;1.23;;;;;;;11.18;87.93;98812.97;4220905;27;21091;-83
2024/01/24 04:12:22;;;;;;;2.80;0.97;;;;;;;11.21;88.92;98808.38;4238030;27;20620;-83
2024/01/24 04:14:45;;;;;;;3.53;1.07;;;;;;;11.24;89.86;98810.81;4247598;27;20616;-83
2024/01/24 04:17:09;;;;;;;2.77;1.20;;;;;;;11.24;90.27;98805.59;4240857;27;21197;-83
2024/01/24 04:19:32;;;;;;;3.93;1.10;;;;;;;11.27;90.54;98808.88;4246456;27;20664;-83
2024/01/24 04:21:56;;;;;;;2.43;0.83;;;;;;;11.29;89.70;98816.63;4230932;27;20644;-82
2024/01/24 04:24:22;;;;;;;5.10;1.23;;;;;;;11.28;90.53;98817.53;4258150;27;20722;-83
2024/01/24 04:26:45;;;;;;;4.77;1.00;;;;;;;11.33;88.56;98812.88;4235539;27;20618;-83
2024/01/24 04:29:09;;;;;;;3.17;1.00;;;;;;;11.36;90.25;98823.16;4240401;27;20601;-83
2024/01/24 04:31:35;;;;;;;2.27;1.00;;;;;;;11.38;89.66;98814.28;4236949;27;20935;-83
2024/01/24 04:33:58;;;;;;;4.90;0.90;;;;;;;11.40;90.02;98819.44;4239135;27;20613;-83
2024/01/24 04:36:22;;;;;;;4.43;1.27;;;;;;;11.45;90.57;98818.19;4259276;27;20620;-83
2024/01/24 04:38:46;;;;;;;3.60;1.07;;;;;;;11.49;89.29;98826.75;4248573;27;20609;-83
2024/01/24 04:41:10;;;;;;;3.57;1.20;;;;;;;11.51;89.84;98827.47;4227345;27;20607;-83
2024/01/24 04:43:33;;;;;;;5.47;1.50;;;;;;;11.56;88.83;98823.69;4234165;27;21058;-83
2024/01/24 04:45:56;;;;;;;3.33;1.20;;;;;;;11.57;88.90;98825.34;4243704;27;21005;-84
2024/01/24 04:48:19;;;;;;;3.53;1.30;;;;;;;11.59;88.77;98825.25;4242800;27;20657;-83
2024/01/24 04:50:44;;;;;;;3.53;1.27;;;;;;;11.58;90.38;98823.59;4260390;27;20615;-83
2024/01/24 04:53:07;;;;;;;3.40;1.30;;;;;;;11.59;89.43;98823.50;4239469;27;20605;-83
2024/01/24 04:55:32;;;;;;;2.60;1.03;;;;;;;11.67;88.62;98807.34;4227234;27;20617;-83
2024/01/24 04:57:55;;;;;;;3.80;0.90;;;;;;;11.70;89.17;98807.13;4245272;27;20675;-83
2024/01/24 05:00:19;;;;;;;2.77;1.30;;;;;;;11.69;89.40;98797.63;4260378;27;20724;-84
2024/01/24 05:02:43;;;;;;;2.77;1.13;;;;;;;11.69;88.53;98789.78;4230132;27;20618;-83
2024/01/24 05:05:06;;;;;;;2.87;1.00;;;;;;;11.73;87.99;98799.09;4254731;27;21166;-83
2024/01/24 05:07:30;;;;;;;5.30;1.20;;;;;;;11.70;90.13;98794.06;4260113;27;20627;-83
2024/01/24 05:09:53;;;;;;;4.00;1.40;;;;;;;11.70;89.62;98796.69;4238806;27;20620;-83
2024/01/24 05:12:18;;;;;;;4.33;1.80;;;;;;;11.75;89.80;98784.19;4253987;27;21033;-83
2024/01/24 05:14:42;;;;;;;2.90;1.00;;;;;;;11.74;90.31;98791.16;4226406;27;20715;-83
2024/01/24 05:17:06;;;;;;;3.87;1.27;;;;;;;11.75;88.71;98800.69;4245440;27;20615;-84
2024/01/24 05:19:29;;;;;;;4.00;1.50;;;;;;;11.77;90.55;98802.28;4256988;27;20687;-83
2024/01/24 05:21:52;;;;;;;3.50;1.20;;;;;;;11.76;89.21;98808.44;4252216;27;20648;-83
2024/01/24 05:24:16;;;;;;;3.70;1.20;;;;;;;11.79;91.29;98810.88;4243187;27;20625;-83
2024/01/24 05:26:39;;;;;;;4.37;1.47;;;;;;;11.78;90.57;98822.25;4251194;27;20643;-83
2024/01/24 05:29:05;;;;;;;4.53;1.17;;;;;;;11.82;90.18;98815.91;4247069;27;20603;-84
2024/01/24 05:31:29;;;;;;;5.70;1.27;;;;;;;11.87;90.25;98813.00;4247689;27;20613;-83
2024/01/24 05:33:55;;;;;;;4.47;2.70;;;;;;;11.84;91.92;98798.34;4244794;27;20605;-83
2024/01/24 05:36:18;;;;;;;4.87;1.10;;;;;;;11.86;90.25;98799.13;4232330;27;20621;-83
2024/01/24 05:38:42;;;;;;;3.50;1.30;;;;;;;11.87;91.07;98800.78;4245117;27;20618;-83
2024/01/24 05:41:05;;;;;;;3.17;1.63;;;;;;;11.86;91.99;98800.88;4253692;27;20635;-83
2024/01/24 05:43:28;;;;;;;3.20;1.43;;;;;;;11.86;91.00;98793.88;4250540;27;20628;-83
2024/01/24 05:45:52;;;;;;;5.40;1.47;;;;;;;11.80;93.03;98782.94;4244251;27;20621;-83
2024/01/24 05:48:15;;;;;;;3.50;1.23;;;;;;;11.79;91.54;98792.56;4249800;27;20632;-84
2024/01/24 05:50:38;;;;;;;2.90;1.50;;;;;;;11.77;93.71;98791.84;4251689;27;20700;-84
2024/01/24 05:53:02;;;;;;;2.53;1.13;;;;;;;11.77;92.04;98789.22;4221701;27;20619;-83
2024/01/24 05:55:25;;;;;;;2.43;1.10;;;;;;;11.79;92.93;98776.06;4240667;27;21146;-84
2024/01/24 05:57:48;;;;;;;3.80;1.63;;;;;;;11.78;92.97;98769.97;4222716;27;20617;-84
2024/01/24 06:00:13;;;;;;;2.77;1.70;;;;;;;11.81;93.05;98767.19;4239171;27;20653;-84
2024/01/24 06:02:39;;;;;;;4.90;1.50;;;;;;;11.84;94.93;98780.06;4228247;27;20622;-84
2024/01/24 06:05:02;;;;;;;4.07;1.20;;;;;;;11.85;94.19;98779.13;4204165;27;1093928;-84
2024/01/24 06:07:27;;;;;;;7.13;2.00;;;;;;;11.88;94.47;98778.94;4217821;27;20214;-84
2024/01/24 06:09:50;;;;;;;5.47;2.73;;;;;;;11.92;94.85;98771.75;4240127;27;20613;-83
2024/01/24 06:12:13;;;;;;;5.03;1.20;;;;;;;11.95;95.23;98782.00;4242941;27;21285;-84
2024/01/24 06:14:37;;;;;;;2.87;1.33;;;;;;;11.96;94.30;98773.22;4238342;27;21195;-81
2024/01/24 06:17:00;;;;;;;2.73;1.30;;;;;;;12.01;94.23;98782.47;4229992;27;20660;-80
2024/01/24 06:19:25;;;;;;;3.53;1.30;;;;;;;12.05;95.15;98797.00;4228311;27;20615;-80
2024/01/24 06:21:48;;;;;;;3.80;1.20;;;;;;;12.05;93.48;98794.41;4254763;27;20657;-81
2024/01/24 06:24:11;;;;;;;3.27;0.87;;;;;;;12.08;94.20;98788.97;4224766;27;20605;-80
2024/01/24 06:26:34;;;;;;;5.43;1.63;;;;;;;12.14;93.89;98803.44;4241314;27;20639;-80
2024/01/24 06:28:58;;;;;;;3.77;1.83;;;;;;;12.14;95.30;98798.22;4236814;27;21006;-83
2024/01/24 06:31:21;;;;;;;3.40;1.50;;;;;;;12.17;94.88;98804.09;4236201;27;21229;-83
2024/01/24 06:33:45;;;;;;;3.53;1.17;;;;;;;12.19;95.40;98804.00;4241835;27;21156;-85
2024/01/24 06:36:09;;;;;;;3.00;1.47;;;;;;;12.21;95.28;98813.44;4238183;27;20622;-82
2024/01/24 06:38:33;;;;;;;2.00;1.00;;;;;;;12.26;93.69;98808.75;4245253;27;20615;-81
2024/01/24 06:40:56;;;;;;;4.97;1.70;;;;;;;12.28;94.52;98814.69;4264655;27;20696;-82
2024/01/24 06:43:20;;;;;;;3.63;1.00;;;;;;;12.29;94.66;98819.84;4260580;27;20602;-82
2024/01/24 06:45:43;;;;;;;3.00;1.10;;;;;;;12.30;96.35;98829.38;4238467;27;20618;-82
2024/01/24 06:48:08;;;;;;;4.80;1.90;;;;;;;12.28;97.48;98822.53;4243317;27;20624;-81
2024/01/24 06:50:33;;;;;;;3.40;1.20;;;;;;;12.25;98.26;98817.50;4238885;27;20642;-82
2024/01/24 06:52:58;;;;;;;3.13;0.90;;;;;;;12.18;100.00;98818.84;4224506;27;20622;-81
2024/01/24 06:55:21;;;;;;;3.90;1.00;;;;;;;12.09;100.00;98805.50;4228072;27;20613;-81
2024/01/24 06:57:45;;;;;;;2.67;1.20;;;;;;;12.04;100.00;98797.97;4228052;27;20613;-81
2024/01/24 07:00:09;;;;;;;3.77;1.17;;;;;;;11.95;100.00;98795.94;4240402;27;22971;-81
2024/01/24 07:02:34;;;;;;;3.60;1.33;;;;;;;11.89;100.00;98798.06;4251045;27;20619;-81
2024/01/24 07:04:57;;;;;;;4.47;1.30;;;;;;;11.86;100.00;98779.97;4236830;27;21197;-83
2024/01/24 07:07:21;;;;;;;7.43;1.30;;;;;;;11.83;100.00;98793.22;4250709;27;20609;-81
2024/01/24 07:09:45;;;;;;;3.30;1.10;;;;;;;11.81;100.00;98788.09;4240440;27;20659;-81
2024/01/24 07:12:09;;;;;;;2.90;1.10;;;;;;;11.80;100.00;98783.81;4237891;27;20605;-81
2024/01/24 07:14:20;;;;;;;3.87;1.07;;;;;;;11.81;100.00;98780.25;4251126;27;21031;-83
2024/01/24 07:16:43;;;;;;;2.60;1.40;;;;;;;11.89;100.00;98788.47;4246306;27;20627;-82
2024/01/24 07:19:07;;;;;;;2.27;1.07;;;;;;;11.91;100.00;98781.38;4238552;27;20660;-83
2024/01/24 07:21:30;;;;;;;5.30;1.07;;;;;;;12.01;100.00;98779.00;4253819;27;20713;-83
2024/01/24 07:23:53;;;;;;;4.60;1.43;;;;;;;12.02;100.00;98773.69;4258063;27;20715;-87
2024/01/24 07:26:16;;;;;;;2.67;1.50;;;;;;;12.07;100.00;98770.78;4260093;27;20615;-87
2024/01/24 07:28:39;;;;;;;3.37;1.27;;;;;;;12.08;100.00;98757.59;4234913;27;20620;-87
2024/01/24 07:31:02;;;;;;;2.87;1.17;;;;;;;12.10;100.00;98763.56;4248823;27;20613;-88
2024/01/24 07:33:26;;;;;;;2.73;1.20;;;;;;;12.14;99.61;98751.16;4231255;27;20995;-85
2024/01/24 07:35:49;;;;;;;5.10;1.10;;;;;;;12.19;99.53;98765.59;4236973;27;20993;-86
2024/01/24 07:38:12;;;;;;;2.70;1.17;;;;;;;12.25;99.54;98760.84;4229304;27;21200;-85
2024/01/24 07:40:37;;;;;;;2.83;0.93;;;;;;;12.29;100.00;98771.94;4240794;27;20613;-86
2024/01/24 07:43:01;;;;;;;3.17;1.10;;;;;;;12.31;98.17;98775.28;4257696;27;20611;-86
2024/01/24 07:45:25;;;;;;;2.73;1.00;;;;;;;12.34;100.00;98755.00;4228110;27;20617;-83
2024/01/24 07:47:49;;;;;;;3.57;1.30;;;;;;;12.40;99.11;98774.69;4252393;27;20620;-82
2024/01/24 07:50:13;;;;;;;1.87;1.00;;;;;;;12.48;97.79;98788.97;4222265;27;20606;-82
2024/01/24 07:52:36;;;;;;;4.00;1.20;;;;;;;12.56;98.36;98785.84;4240317;27;20684;-83
2024/01/24 07:55:05;;;;;;;2.53;0.90;;;;;;;12.58;97.83;98784.78;4230510;27;20971;-83
2024/01/24 07:57:29;;;;;;;3.60;1.10;;;;;;;12.63;96.96;98779.25;4253914;27;20614;-83
2024/01/24 07:59:54;;;;;;;2.43;1.10;;;;;;;12.71;97.63;98793.53;4237424;27;20704;-83
2024/01/24 08:02:17;;;;;;;3.83;1.30;;;;;;;12.75;96.72;98801.09;4242040;27;20667;-83
2024/01/24 08:04:41;;;;;;;3.10;1.03;;;;;;;12.82;96.14;98797.16;4256266;27;20627;-83
2024/01/24 08:07:05;;;;;;;2.60;1.20;;;;;;;12.83;96.59;98796.19;4237218;27;20629;-83
2024/01/24 08:09:28;;;;;;;2.40;1.10;;;;;;;12.89;96.48;98794.97;4243470;27;21328;-83
2024/01/24 08:11:53;;;;;;;1.77;0.87;;;;;;;12.89;95.95;98790.56;4229406;27;20606;-83
2024/01/24 08:14:18;;;;;;;3.87;1.17;;;;;;;12.96;95.48;98807.56;4245428;27;20607;-83
2024/01/24 08:19:14;;;;;;;1.80;0.90;;;;;;;13.02;96.08;98786.19;4251034;27;20697;-82
2024/01/24 08:21:38;;;;;;;2.53;1.00;;;;;;;13.02;96.47;98801.91;4262071;27;21211;-82
2024/01/24 08:24:01;;;;;;;1.87;0.87;;;;;;;13.04;96.29;98815.72;4250050;27;20608;-82
2024/01/24 08:26:25;;;;;;;2.00;0.97;;;;;;;13.07;96.53;98823.38;4256285;27;20612;-83
2024/01/24 08:28:48;;;;;;;2.20;0.90;;;;;;;13.12;97.36;98813.44;4266686;27;20601;-82
2024/01/24 08:31:13;;;;;;;3.93;1.20;;;;;;;13.16;97.29;98820.16;4247601;27;21174;-83
2024/01/24 08:33:36;;;;;;;3.20;0.80;;;;;;;13.20;96.62;98811.16;4269126;27;20604;-82
2024/01/24 08:36:01;;;;;;;2.33;0.80;;;;;;;13.17;97.28;98800.88;4267825;27;20643;-82
2024/01/24 08:38:24;;;;;;;2.30;0.90;;;;;;;13.20;97.61;98800.69;4240595;27;20708;-83
2024/01/24 08:40:47;;;;;;;1.83;0.70;;;;;;;13.21;96.24;98802.34;4251633;27;20615;-82
2024/01/24 08:43:10;;;;;;;4.00;1.00;;;;;;;13.22;97.93;98810.09;4268641;27;21165;-82
2024/01/24 08:45:34;;;;;;;3.87;0.90;;;;;;;13.27;97.36;98800.13;4252256;27;21368;-82
2024/01/24 08:47:57;;;;;;;2.53;1.10;;;;;;;13.27;96.39;98807.16;4269409;27;20609;-82
2024/01/24 08:50:22;;;;;;;2.60;0.90;;;;;;;13.29;97.18;98806.13;4269974;27;21226;-83
2024/01/24 08:52:46;;;;;;;2.10;0.83;;;;;;;13.34;97.09;98792.72;4250078;27;20638;-83
2024/01/24 08:55:11;;;;;;;2.60;0.83;;;;;;;13.36;97.47;98799.50;4268524;27;20600;-84
2024/01/24 08:57:35;;;;;;;2.07;0.80;;;;;;;13.38;97.87;98808.13;4266178;27;20621;-84
2024/01/24 08:59:58;;;;;;;2.17;0.90;;;;;;;13.41;98.28;98794.81;4257251;27;20612;-84
2024/01/24 09:02:21;;;;;;;2.00;0.90;;;;;;;13.36;99.47;98796.06;4240673;27;20622;-84
2024/01/24 09:04:46;;;;;;;1.67;0.83;;;;;;;13.39;99.17;98801.09;4271307;27;20608;-83
2024/01/24 09:07:09;;;;;;;2.83;0.90;;;;;;;13.44;98.97;98804.22;4266101;27;21036;-83
2024/01/24 09:09:35;;;;;;;1.60;0.80;;;;;;;13.46;99.25;98810.22;4270628;27;20600;-84
2024/01/24 09:12:03;;;;;;;3.00;0.60;;;;;;;13.52;98.48;98822.91;4266825;27;20601;-83
2024/01/24 09:14:26;;;;;;;2.53;0.70;;;;;;;13.54;98.46;98807.91;4246912;27;20627;-84
2024/01/24 09:16:49;;;;;;;1.90;0.60;;;;;;;13.54;98.99;98818.41;4262665;27;20715;-84
2024/01/24 09:19:13;;;;;;;1.70;0.60;;;;;;;13.54;99.71;98807.91;4261453;27;20720;-84
2024/01/24 09:21:36;;;;;;;3.30;1.03;;;;;;;13.59;98.71;98816.28;4251136;27;21041;-84
2024/01/24 09:23:59;;;;;;;1.70;0.67;;;;;;;13.61;98.29;98806.56;4256280;27;20628;-83
2024/01/24 09:26:24;;;;;;;1.47;0.50;;;;;;;13.64;98.59;98812.41;4247230;27;21205;-84
2024/01/24 09:28:47;;;;;;;1.40;0.50;;;;;;;13.64;99.54;98818.50;4244736;27;20707;-83
2024/01/24 09:31:10;;;;;;;1.60;0.60;;;;;;;13.63;100.00;98826.47;4223313;27;20614;-84
2024/01/24 09:33:33;;;;;;;1.77;0.50;;;;;;;13.64;100.00;98816.84;4242171;27;20629;-84
2024/01/24 09:35:59;;;;;;;1.40;0.50;;;;;;;13.62;99.97;98808.22;4256705;27;20965;-84
2024/01/24 09:38:23;;;;;;;1.30;0.30;;;;;;;13.62;99.95;98802.97;4245029;27;20648;-84
2024/01/24 09:40:46;;;;;;;1.80;0.60;;;;;;;13.68;99.43;98811.25;4252893;27;21052;-84
2024/01/24 09:43:10;;;;;;;1.30;0.40;;;;;;;13.63;98.94;98809.91;4228890;27;20618;-84
2024/01/24 09:45:35;;;;;;;1.50;0.60;;;;;;;13.71;99.77;98804.03;4243304;27;20602;-84
2024/01/24 09:47:59;;;;;;;1.43;0.40;;;;;;;13.74;100.00;98809.06;4233697;27;20650;-84
2024/01/24 09:50:22;;;;;;;1.30;0.40;;;;;;;13.63;99.21;98802.03;4253991;27;20612;-84
2024/01/24 09:52:46;;;;;;;3.80;1.50;;;;;;;13.67;99.59;98809.59;4252253;27;20635;-84
2024/01/24 09:55:13;;;;;;;1.27;0.40;;;;;;;13.60;99.63;98799.63;4233158;27;21267;-84
2024/01/24 09:57:37;;;;;;;1.50;0.40;;;;;;;13.63;99.63;98805.50;4254092;27;20619;-84
2024/01/24 10:00:02;;;;;;;1.30;0.40;;;;;;;13.67;98.86;98809.59;4253110;27;20648;-84
2024/01/24 10:02:27;;;;;;;1.30;0.40;;;;;;;13.76;99.12;98816.81;4257891;27;20620;-84
2024/01/24 10:04:52;;;;;;;1.60;0.40;;;;;;;13.75;99.58;98817.75;4252819;27;20617;-84
2024/01/24 10:07:15;;;;;;;1.50;0.50;;;;;;;13.75;99.59;98823.81;4257224;27;20622;-84
2024/01/24 10:09:38;;;;;;;1.60;0.47;;;;;;;13.80;99.26;98834.00;4247082;27;20668;-84
2024/01/24 10:12:02;;;;;;;1.30;0.40;;;;;;;13.82;98.79;98827.72;4241321;27;20613;-84
2024/01/24 10:14:25;;;;;;;1.40;0.43;;;;;;;13.87;98.62;98830.84;4252677;27;20606;-84
2024/01/24 10:16:51;;;;;;;2.13;0.50;;;;;;;13.86;98.54;98833.56;4243389;27;20626;-84
2024/01/24 10:19:10;;;;;;;1.47;0.50;;;;;;;13.88;98.25;98824.66;4242155;27;20657;-84
2024/01/24 10:21:34;;;;;;;2.03;0.70;;;;;;;13.82;99.57;98827.72;4255921;27;21232;-84
2024/01/24 10:23:59;;;;;;;1.53;0.50;;;;;;;13.84;100.00;98820.56;4248008;27;21206;-84
2024/01/24 10:26:22;;;;;;;1.70;0.40;;;;;;;13.80;100.00;98826.13;4239370;27;20620;-84
2024/01/24 10:28:46;;;;;;;1.40;0.40;;;;;;;13.75;100.00;98823.81;4224740;27;20610;-84
2024/01/24 10:31:11;;;;;;;1.57;0.40;;;;;;;13.83;100.00;98837.28;4242519;27;20609;-84
2024/01/24 10:33:36;;;;;;;1.40;0.40;;;;;;;13.87;99.63;98843.97;4258875;27;20617;-84
2024/01/24 10:36:00;;;;;;;1.30;0.30;;;;;;;13.87;99.09;98851.00;4245895;27;20716;-84
2024/01/24 10:38:32;;;;;;;1.30;0.40;;;;;;;13.97;98.75;98858.13;4251202;27;20617;-84
2024/01/24 10:40:59;;;;;;;1.40;0.50;;;;;;;13.98;98.00;98844.06;4223466;27;20595;-83
2024/01/24 10:43:23;;;;;;;1.70;0.50;;;;;;;14.10;97.83;98840.59;4222466;27;20602;-83
2024/01/24 10:45:46;;;;;;;2.27;0.93;;;;;;;14.28;98.03;98847.16;4253465;27;21182;-83
2024/01/24 10:48:11;;;;;;;1.30;0.40;;;;;;;14.49;96.47;98838.59;4220991;27;20621;-84
2024/01/24 10:50:37;;;;;;;1.47;0.40;;;;;;;14.62;93.84;98834.16;4234797;27;21069;-83
2024/01/24 10:53:02;;;;;;;1.40;0.40;;;;;;;14.70;93.82;98843.16;4228663;27;20985;-84
2024/01/24 10:55:26;;;;;;;1.40;0.40;;;;;;;14.76;93.84;98866.34;4238861;27;20614;-85
2024/01/24 10:57:49;;;;;;;1.37;0.40;;;;;;;14.78;93.46;98864.44;4251560;27;20617;-84
2024/01/24 11:00:15;;;;;;;2.37;0.70;;;;;;;14.77;92.49;98885.56;4234475;27;20751;-84
2024/01/24 11:02:40;;;;;;;1.30;0.40;;;;;;;14.72;93.67;98891.16;4257594;27;20714;-83
2024/01/24 11:05:05;;;;;;;1.70;0.70;;;;;;;14.64;93.96;98883.00;4236169;27;21018;-83
2024/01/24 11:07:33;;;;;;;1.60;0.40;;;;;;;14.59;92.97;98907.88;4253259;27;20624;-84
2024/01/24 11:10:03;;;;;;;1.93;0.50;;;;;;;14.70;92.69;98911.44;4252296;27;20611;-84
2024/01/24 11:12:30;;;;;;;1.70;0.50;;;;;;;14.88;92.78;98911.88;4235415;27;20631;-84
2024/01/24 11:14:53;;;;;;;1.47;0.50;;;;;;;14.98;90.68;98915.53;4225583;27;20712;-83